sensor_id;sensor_type;location;lat;lon;timestamp;pressure;altitude;pressure_sealevel;temperature;humidity
25722;BME280;13578;53.450;15.496;2022-07-29T00:02:27;100405.25;;;13.82;100.00
25722;BME280;13578;53.450;15.496;2022-07-29T00:05:28;100398.16;;;13.80;100.00
25722;BME280;13578;53.450;15.496;2022-07-29T00:08:28;100402.66;;;13.81;100.00
25722;BME280;13578;53.450;15.496;2022-07-29T00:11:29;100405.09;;;13.84;100.00
25722;BME280;13578;53.450;15.496;2022-07-29T00:14:30;100403.09;;;13.76;100.00
25722;BME280;13578;53.450;15.496;2022-07-29T00:17:30;100399.31;;;13.77;100.00
25722;BME280;13578;53.450;15.496;2022-07-29T00:20:31;100404.25;;;13.74;100.00
25722;BME280;13578;53.450;15.496;2022-07-29T00:23:32;100403.94;;;13.67;100.00
25722;BME280;13578;53.450;15.496;2022-07-29T00:26:32;100396.72;;;13.76;100.00
25722;BME280;13578;53.450;15.496;2022-07-29T00:29:33;100406.28;;;13.81;100.00
25722;BME280;13578;53.450;15.496;2022-07-29T00:32:34;100399.88;;;13.91;100.00
25722;BME280;13578;53.450;15.496;2022-07-29T00:35:35;100405.41;;;13.81;100.00
25722;BME280;13578;53.450;15.496;2022-07-29T00:38:44;100398.16;;;13.80;100.00
25722;BME280;13578;53.450;15.496;2022-07-29T00:41:46;100405.72;;;13.88;100.00
25722;BME280;13578;53.450;15.496;2022-07-29T00:44:46;100394.38;;;13.91;100.00
25722;BME280;13578;53.450;15.496;2022-07-29T00:47:48;100393.94;;;13.86;100.00
25722;BME280;13578;53.450;15.496;2022-07-29T00:50:49;100386.81;;;13.93;100.00
25722;BME280;13578;53.450;15.496;2022-07-29T00:53:50;100396.41;;;13.89;100.00
25722;BME280;13578;53.450;15.496;2022-07-29T00:56:51;100384.50;;;13.78;100.00
25722;BME280;13578;53.450;15.496;2022-07-29T00:59:51;100391.63;;;13.81;100.00
25722;BME280;13578;53.450;15.496;2022-07-29T01:02:52;100394.38;;;13.81;100.00
25722;BME280;13578;53.450;15.496;2022-07-29T01:05:54;100389.59;;;13.83;100.00
25722;BME280;13578;53.450;15.496;2022-07-29T01:08:55;100385.22;;;13.80;100.00
25722;BME280;13578;53.450;15.496;2022-07-29T01:11:57;100391.19;;;13.76;100.00
25722;BME280;13578;53.450;15.496;2022-07-29T01:14:59;100395.53;;;13.78;100.00
25722;BME280;13578;53.450;15.496;2022-07-29T01:18:11;100376.34;;;13.77;100.00
25722;BME280;13578;53.450;15.496;2022-07-29T01:24:50;100388.13;;;13.79;100.00
25722;BME280;13578;53.450;15.496;2022-07-29T01:31:54;100397.13;;;13.71;100.00
25722;BME280;13578;53.450;15.496;2022-07-29T01:35:06;100407.44;;;13.69;100.00
25722;BME280;13578;53.450;15.496;2022-07-29T01:38:13;100386.53;;;13.57;100.00
25722;BME280;13578;53.450;15.496;2022-07-29T01:41:19;100389.72;;;13.62;100.00
25722;BME280;13578;53.450;15.496;2022-07-29T01:44:30;100391.03;;;13.58;100.00
25722;BME280;13578;53.450;15.496;2022-07-29T01:47:40;100385.78;;;13.55;100.00
25722;BME280;13578;53.450;15.496;2022-07-29T01:50:48;100397.84;;;13.63;100.00
25722;BME280;13578;53.450;15.496;2022-07-29T01:54:05;100387.69;;;13.54;100.00
25722;BME280;13578;53.450;15.496;2022-07-29T01:57:08;100394.06;;;13.55;100.00
25722;BME280;13578;53.450;15.496;2022-07-29T02:00:10;100388.81;;;13.52;100.00
25722;BME280;13578;53.450;15.496;2022-07-29T02:03:12;100400.75;;;13.52;100.00
25722;BME280;13578;53.450;15.496;2022-07-29T02:06:19;100394.22;;;13.43;100.00
25722;BME280;13578;53.450;15.496;2022-07-29T02:09:22;100381.28;;;13.44;100.00
25722;BME280;13578;53.450;15.496;2022-07-29T02:12:24;100373.75;;;13.46;100.00
25722;BME280;13578;53.450;15.496;2022-07-29T02:15:27;100387.53;;;13.46;100.00
25722;BME280;13578;53.450;15.496;2022-07-29T02:18:30;100383.88;;;13.45;100.00
25722;BME280;13578;53.450;15.496;2022-07-29T02:21:32;100370.84;;;13.47;100.00
25722;BME280;13578;53.450;15.496;2022-07-29T02:24:36;100379.97;;;13.38;100.00
25722;BME280;13578;53.450;15.496;2022-07-29T02:27:38;100374.84;;;13.33;100.00
25722;BME280;13578;53.450;15.496;2022-07-29T02:30:41;100370.84;;;13.47;100.00
25722;BME280;13578;53.450;15.496;2022-07-29T02:33:45;100364.41;;;13.37;100.00
25722;BME280;13578;53.450;15.496;2022-07-29T02:36:47;100370.41;;;13.42;100.00
25722;BME280;13578;53.450;15.496;2022-07-29T02:39:52;100367.50;;;13.44;100.00
25722;BME280;13578;53.450;15.496;2022-07-29T02:42:54;100369.97;;;13.47;100.00
25722;BME280;13578;53.450;15.496;2022-07-29T02:45:56;100359.53;;;13.50;100.00
25722;BME280;13578;53.450;15.496;2022-07-29T02:52:26;100362.28;;;13.50;100.00
25722;BME280;13578;53.450;15.496;2022-07-29T02:55:33;100364.00;;;13.52;100.00
25722;BME280;13578;53.450;15.496;2022-07-29T02:58:40;100360.53;;;13.49;100.00
25722;BME280;13578;53.450;15.496;2022-07-29T03:01:42;100361.84;;;13.55;100.00
25722;BME280;13578;53.450;15.496;2022-07-29T03:04:46;100362.72;;;13.56;100.00
25722;BME280;13578;53.450;15.496;2022-07-29T03:07:54;100352.56;;;13.56;100.00
25722;BME280;13578;53.450;15.496;2022-07-29T03:10:56;100358.94;;;13.57;100.00
25722;BME280;13578;53.450;15.496;2022-07-29T03:13:57;100342.09;;;13.50;100.00
25722;BME280;13578;53.450;15.496;2022-07-29T03:16:58;100354.16;;;13.49;100.00
25722;BME280;13578;53.450;15.496;2022-07-29T03:19:59;100344.59;;;13.53;100.00
25722;BME280;13578;53.450;15.496;2022-07-29T03:23:00;100339.94;;;13.63;100.00
25722;BME280;13578;53.450;15.496;2022-07-29T03:26:00;100328.88;;;13.63;100.00
25722;BME280;13578;53.450;15.496;2022-07-29T03:29:01;100339.66;;;13.57;100.00
25722;BME280;13578;53.450;15.496;2022-07-29T03:32:04;100339.91;;;13.73;100.00
25722;BME280;13578;53.450;15.496;2022-07-29T03:35:05;100339.50;;;13.88;100.00
25722;BME280;13578;53.450;15.496;2022-07-29T03:38:07;100331.03;;;14.09;100.00
25722;BME280;13578;53.450;15.496;2022-07-29T03:41:10;100322.72;;;14.19;100.00
25722;BME280;13578;53.450;15.496;2022-07-29T03:44:13;100330.41;;;14.35;100.00
25722;BME280;13578;53.450;15.496;2022-07-29T03:47:18;100328.91;;;14.40;100.00
25722;BME280;13578;53.450;15.496;2022-07-29T03:50:21;100322.19;;;14.43;100.00
25722;BME280;13578;53.450;15.496;2022-07-29T03:53:22;100321.84;;;14.66;100.00
25722;BME280;13578;53.450;15.496;2022-07-29T03:56:24;100324.38;;;14.87;100.00
25722;BME280;13578;53.450;15.496;2022-07-29T03:59:26;100317.44;;;14.83;100.00
25722;BME280;13578;53.450;15.496;2022-07-29T04:02:27;100333.97;;;14.92;100.00
25722;BME280;13578;53.450;15.496;2022-07-29T04:05:28;100328.47;;;15.11;100.00
25722;BME280;13578;53.450;15.496;2022-07-29T04:08:29;100336.00;;;14.90;100.00
25722;BME280;13578;53.450;15.496;2022-07-29T04:11:29;100328.94;;;14.78;100.00
25722;BME280;13578;53.450;15.496;2022-07-29T04:14:31;100334.50;;;14.58;100.00
25722;BME280;13578;53.450;15.496;2022-07-29T04:17:33;100335.28;;;14.51;100.00
25722;BME280;13578;53.450;15.496;2022-07-29T04:20:33;100339.06;;;14.50;100.00
25722;BME280;13578;53.450;15.496;2022-07-29T04:23:34;100351.78;;;14.70;100.00
25722;BME280;13578;53.450;15.496;2022-07-29T04:26:35;100344.81;;;14.76;100.00
25722;BME280;13578;53.450;15.496;2022-07-29T04:29:35;100344.84;;;14.66;100.00
25722;BME280;13578;53.450;15.496;2022-07-29T04:32:36;100349.16;;;14.79;100.00
25722;BME280;13578;53.450;15.496;2022-07-29T04:35:37;100359.13;;;15.17;100.00
25722;BME280;13578;53.450;15.496;2022-07-29T04:38:38;100354.50;;;15.36;100.00
25722;BME280;13578;53.450;15.496;2022-07-29T04:41:39;100357.16;;;15.28;100.00
25722;BME280;13578;53.450;15.496;2022-07-29T04:44:39;100353.03;;;15.14;100.00
25722;BME280;13578;53.450;15.496;2022-07-29T04:47:40;100358.03;;;15.28;100.00
25722;BME280;13578;53.450;15.496;2022-07-29T04:50:41;100360.97;;;15.27;100.00
25722;BME280;13578;53.450;15.496;2022-07-29T04:53:42;100369.59;;;15.23;100.00
25722;BME280;13578;53.450;15.496;2022-07-29T04:56:43;100359.56;;;15.13;100.00
25722;BME280;13578;53.450;15.496;2022-07-29T04:59:43;100363.50;;;15.20;100.00
25722;BME280;13578;53.450;15.496;2022-07-29T05:02:44;100361.53;;;15.02;100.00
25722;BME280;13578;53.450;15.496;2022-07-29T05:05:45;100371.72;;;15.30;100.00
25722;BME280;13578;53.450;15.496;2022-07-29T05:08:45;100362.16;;;15.42;100.00
25722;BME280;13578;53.450;15.496;2022-07-29T05:11:49;100356.09;;;15.75;100.00
25722;BME280;13578;53.450;15.496;2022-07-29T05:14:49;100345.13;;;15.83;100.00
25722;BME280;13578;53.450;15.496;2022-07-29T05:17:50;100349.31;;;15.87;100.00
25722;BME280;13578;53.450;15.496;2022-07-29T05:20:51;100352.59;;;15.72;100.00
25722;BME280;13578;53.450;15.496;2022-07-29T05:23:51;100348.16;;;15.80;100.00
25722;BME280;13578;53.450;15.496;2022-07-29T05:26:52;100345.03;;;15.93;100.00
25722;BME280;13578;53.450;15.496;2022-07-29T05:29:52;100350.97;;;15.98;100.00
25722;BME280;13578;53.450;15.496;2022-07-29T05:32:53;100350.88;;;16.08;100.00
25722;BME280;13578;53.450;15.496;2022-07-29T05:35:54;100341.53;;;16.09;100.00
25722;BME280;13578;53.450;15.496;2022-07-29T05:38:54;100357.13;;;16.36;100.00
25722;BME280;13578;53.450;15.496;2022-07-29T05:41:55;100353.09;;;16.57;100.00
25722;BME280;13578;53.450;15.496;2022-07-29T05:44:56;100350.56;;;16.63;100.00
25722;BME280;13578;53.450;15.496;2022-07-29T05:47:56;100351.22;;;16.57;100.00
25722;BME280;13578;53.450;15.496;2022-07-29T05:50:57;100351.31;;;16.74;100.00
25722;BME280;13578;53.450;15.496;2022-07-29T05:53:58;100358.50;;;16.93;100.00
25722;BME280;13578;53.450;15.496;2022-07-29T05:56:59;100346.06;;;16.97;100.00
25722;BME280;13578;53.450;15.496;2022-07-29T05:59:59;100346.81;;;17.15;100.00
25722;BME280;13578;53.450;15.496;2022-07-29T06:03:00;100342.19;;;17.24;100.00
25722;BME280;13578;53.450;15.496;2022-07-29T06:06:01;100336.75;;;17.06;100.00
25722;BME280;13578;53.450;15.496;2022-07-29T06:09:03;100354.31;;;17.23;100.00
25722;BME280;13578;53.450;15.496;2022-07-29T06:12:04;100344.47;;;17.37;100.00
25722;BME280;13578;53.450;15.496;2022-07-29T06:15:05;100327.31;;;17.42;100.00
25722;BME280;13578;53.450;15.496;2022-07-29T06:18:06;100334.28;;;17.62;100.00
25722;BME280;13578;53.450;15.496;2022-07-29T06:21:09;100334.66;;;17.68;100.00
25722;BME280;13578;53.450;15.496;2022-07-29T06:24:11;100333.25;;;17.80;100.00
25722;BME280;13578;53.450;15.496;2022-07-29T06:27:12;100333.78;;;17.75;100.00
25722;BME280;13578;53.450;15.496;2022-07-29T06:30:13;100324.44;;;18.01;100.00
25722;BME280;13578;53.450;15.496;2022-07-29T06:33:18;100328.72;;;18.37;100.00
25722;BME280;13578;53.450;15.496;2022-07-29T06:36:19;100328.69;;;18.53;100.00
25722;BME280;13578;53.450;15.496;2022-07-29T06:39:20;100327.34;;;18.33;100.00
25722;BME280;13578;53.450;15.496;2022-07-29T06:42:21;100317.81;;;18.19;100.00
25722;BME280;13578;53.450;15.496;2022-07-29T06:45:21;100323.22;;;18.12;100.00
25722;BME280;13578;53.450;15.496;2022-07-29T06:48:22;100331.50;;;18.29;100.00
25722;BME280;13578;53.450;15.496;2022-07-29T06:51:23;100329.75;;;18.52;100.00
25722;BME280;13578;53.450;15.496;2022-07-29T06:54:24;100332.97;;;18.81;100.00
25722;BME280;13578;53.450;15.496;2022-07-29T06:57:24;100335.06;;;19.18;100.00
25722;BME280;13578;53.450;15.496;2022-07-29T07:00:25;100338.81;;;19.34;100.00
25722;BME280;13578;53.450;15.496;2022-07-29T07:03:26;100338.41;;;19.14;100.00
25722;BME280;13578;53.450;15.496;2022-07-29T07:06:26;100346.72;;;19.22;100.00
25722;BME280;13578;53.450;15.496;2022-07-29T07:09:27;100338.31;;;19.30;100.00
25722;BME280;13578;53.450;15.496;2022-07-29T07:12:28;100334.91;;;19.51;100.00
25722;BME280;13578;53.450;15.496;2022-07-29T07:15:29;100339.47;;;19.67;100.00
25722;BME280;13578;53.450;15.496;2022-07-29T07:18:30;100336.41;;;19.86;100.00
25722;BME280;13578;53.450;15.496;2022-07-29T07:21:32;100337.38;;;20.16;100.00
25722;BME280;13578;53.450;15.496;2022-07-29T07:24:33;100338.09;;;20.33;100.00
25722;BME280;13578;53.450;15.496;2022-07-29T07:27:34;100337.56;;;20.14;100.00
25722;BME280;13578;53.450;15.496;2022-07-29T07:30:35;100335.38;;;19.87;100.00
25722;BME280;13578;53.450;15.496;2022-07-29T07:33:35;100332.88;;;19.68;100.00
25722;BME280;13578;53.450;15.496;2022-07-29T07:36:36;100335.03;;;20.05;100.00
25722;BME280;13578;53.450;15.496;2022-07-29T07:39:37;100324.94;;;20.04;100.00
25722;BME280;13578;53.450;15.496;2022-07-29T07:42:38;100336.03;;;20.27;100.00
25722;BME280;13578;53.450;15.496;2022-07-29T07:45:39;100339.19;;;20.62;100.00
25722;BME280;13578;53.450;15.496;2022-07-29T07:48:40;100337.59;;;20.83;100.00
25722;BME280;13578;53.450;15.496;2022-07-29T07:51:41;100336.97;;;21.02;100.00
25722;BME280;13578;53.450;15.496;2022-07-29T07:54:41;100336.25;;;21.45;100.00
25722;BME280;13578;53.450;15.496;2022-07-29T07:57:44;100345.25;;;21.62;100.00
25722;BME280;13578;53.450;15.496;2022-07-29T08:00:45;100334.78;;;21.86;100.00
25722;BME280;13578;53.450;15.496;2022-07-29T08:03:45;100326.66;;;21.69;100.00
25722;BME280;13578;53.450;15.496;2022-07-29T08:06:46;100346.88;;;21.71;100.00
25722;BME280;13578;53.450;15.496;2022-07-29T08:09:47;100342.22;;;21.79;100.00
25722;BME280;13578;53.450;15.496;2022-07-29T08:12:47;100334.22;;;21.97;100.00
25722;BME280;13578;53.450;15.496;2022-07-29T08:15:48;100324.06;;;22.18;100.00
25722;BME280;13578;53.450;15.496;2022-07-29T08:18:57;100337.28;;;22.52;100.00
25722;BME280;13578;53.450;15.496;2022-07-29T08:21:58;100338.00;;;22.96;100.00
25722;BME280;13578;53.450;15.496;2022-07-29T08:24:58;100334.91;;;22.84;100.00
25722;BME280;13578;53.450;15.496;2022-07-29T08:27:59;100340.75;;;22.55;100.00
25722;BME280;13578;53.450;15.496;2022-07-29T08:31:00;100345.38;;;22.41;100.00
25722;BME280;13578;53.450;15.496;2022-07-29T08:34:00;100333.59;;;22.24;100.00
25722;BME280;13578;53.450;15.496;2022-07-29T08:37:02;100341.22;;;22.36;100.00
25722;BME280;13578;53.450;15.496;2022-07-29T08:40:03;100338.25;;;22.66;100.00
25722;BME280;13578;53.450;15.496;2022-07-29T08:43:06;100338.41;;;22.58;100.00
25722;BME280;13578;53.450;15.496;2022-07-29T08:46:07;100337.50;;;22.51;100.00
25722;BME280;13578;53.450;15.496;2022-07-29T08:49:07;100342.88;;;22.52;100.00
25722;BME280;13578;53.450;15.496;2022-07-29T08:52:11;100333.97;;;22.71;100.00
25722;BME280;13578;53.450;15.496;2022-07-29T08:55:14;100346.84;;;23.00;100.00
25722;BME280;13578;53.450;15.496;2022-07-29T08:58:16;100344.91;;;23.00;100.00
25722;BME280;13578;53.450;15.496;2022-07-29T09:01:23;100333.13;;;22.77;100.00
25722;BME280;13578;53.450;15.496;2022-07-29T09:04:24;100337.72;;;22.84;100.00
25722;BME280;13578;53.450;15.496;2022-07-29T09:07:27;100341.81;;;22.89;100.00
25722;BME280;13578;53.450;15.496;2022-07-29T09:10:28;100346.06;;;22.78;100.00
25722;BME280;13578;53.450;15.496;2022-07-29T09:13:29;100335.81;;;22.57;100.00
25722;BME280;13578;53.450;15.496;2022-07-29T09:16:50;100341.34;;;22.50;100.00
25722;BME280;13578;53.450;15.496;2022-07-29T09:19:51;100334.66;;;22.44;100.00
25722;BME280;13578;53.450;15.496;2022-07-29T09:22:52;100336.63;;;22.29;100.00
25722;BME280;13578;53.450;15.496;2022-07-29T09:25:54;100335.25;;;22.18;100.00
25722;BME280;13578;53.450;15.496;2022-07-29T09:28:54;100337.72;;;22.28;100.00
25722;BME280;13578;53.450;15.496;2022-07-29T09:31:55;100333.34;;;22.40;100.00
25722;BME280;13578;53.450;15.496;2022-07-29T09:35:16;100331.97;;;22.36;100.00
25722;BME280;13578;53.450;15.496;2022-07-29T09:38:17;100328.00;;;22.24;100.00
25722;BME280;13578;53.450;15.496;2022-07-29T09:41:17;100338.44;;;22.36;100.00
25722;BME280;13578;53.450;15.496;2022-07-29T09:44:19;100342.06;;;22.59;100.00
25722;BME280;13578;53.450;15.496;2022-07-29T09:47:19;100336.16;;;22.75;100.00
25722;BME280;13578;53.450;15.496;2022-07-29T09:50:22;100332.56;;;22.53;100.00
25722;BME280;13578;53.450;15.496;2022-07-29T09:56:40;100334.94;;;22.56;100.00
25722;BME280;13578;53.450;15.496;2022-07-29T09:59:55;100340.44;;;22.71;100.00
25722;BME280;13578;53.450;15.496;2022-07-29T10:02:59;100336.06;;;22.62;100.00
25722;BME280;13578;53.450;15.496;2022-07-29T10:06:08;100335.94;;;22.77;100.00
25722;BME280;13578;53.450;15.496;2022-07-29T10:09:10;100333.56;;;22.74;100.00
25722;BME280;13578;53.450;15.496;2022-07-29T10:12:12;100327.81;;;22.82;100.00
25722;BME280;13578;53.450;15.496;2022-07-29T10:15:16;100327.88;;;22.95;100.00
25722;BME280;13578;53.450;15.496;2022-07-29T10:18:16;100324.75;;;23.12;100.00
25722;BME280;13578;53.450;15.496;2022-07-29T10:21:20;100325.66;;;23.26;100.00
25722;BME280;13578;53.450;15.496;2022-07-29T10:24:21;100322.75;;;23.61;95.41
25722;BME280;13578;53.450;15.496;2022-07-29T10:27:22;100331.66;;;23.78;91.96
25722;BME280;13578;53.450;15.496;2022-07-29T10:30:25;100325.19;;;23.84;87.09
25722;BME280;13578;53.450;15.496;2022-07-29T10:37:12;100322.59;;;23.89;84.36
25722;BME280;13578;53.450;15.496;2022-07-29T10:40:38;100321.38;;;24.12;85.19
25722;BME280;13578;53.450;15.496;2022-07-29T10:50:21;100323.72;;;24.02;73.46
25722;BME280;13578;53.450;15.496;2022-07-29T10:53:22;100308.59;;;23.76;60.06
25722;BME280;13578;53.450;15.496;2022-07-29T10:56:25;100308.56;;;23.62;66.69
25722;BME280;13578;53.450;15.496;2022-07-29T10:59:26;100307.72;;;23.69;65.16
25722;BME280;13578;53.450;15.496;2022-07-29T11:05:51;100306.97;;;23.26;67.51
25722;BME280;13578;53.450;15.496;2022-07-29T11:09:15;100312.44;;;23.68;69.06
25722;BME280;13578;53.450;15.496;2022-07-29T11:15:55;100318.31;;;24.67;61.95
25722;BME280;13578;53.450;15.496;2022-07-29T11:22:32;100317.47;;;24.40;63.91
25722;BME280;13578;53.450;15.496;2022-07-29T11:25:33;100317.69;;;24.32;64.95
25722;BME280;13578;53.450;15.496;2022-07-29T11:28:34;100305.63;;;24.04;61.68
25722;BME280;13578;53.450;15.496;2022-07-29T11:31:48;100303.84;;;23.83;59.92
25722;BME280;13578;53.450;15.496;2022-07-29T11:35:18;100311.16;;;23.77;64.59
25722;BME280;13578;53.450;15.496;2022-07-29T11:38:25;100304.69;;;23.84;64.43
25722;BME280;13578;53.450;15.496;2022-07-29T11:41:29;100309.47;;;23.90;63.69
25722;BME280;13578;53.450;15.496;2022-07-29T11:47:59;100302.41;;;24.14;62.44
25722;BME280;13578;53.450;15.496;2022-07-29T11:50:59;100304.75;;;24.24;58.07
25722;BME280;13578;53.450;15.496;2022-07-29T11:54:01;100304.31;;;24.34;55.39
25722;BME280;13578;53.450;15.496;2022-07-29T11:57:02;100295.47;;;24.50;56.76
25722;BME280;13578;53.450;15.496;2022-07-29T12:00:07;100302.16;;;24.69;60.23
25722;BME280;13578;53.450;15.496;2022-07-29T12:03:10;100290.25;;;24.61;57.50
25722;BME280;13578;53.450;15.496;2022-07-29T12:06:14;100285.75;;;24.53;58.11
25722;BME280;13578;53.450;15.496;2022-07-29T12:09:15;100291.13;;;24.54;56.42
25722;BME280;13578;53.450;15.496;2022-07-29T12:12:18;100294.59;;;24.43;58.55
25722;BME280;13578;53.450;15.496;2022-07-29T12:15:19;100289.38;;;24.53;59.23
25722;BME280;13578;53.450;15.496;2022-07-29T12:18:24;100285.53;;;24.41;56.09
25722;BME280;13578;53.450;15.496;2022-07-29T12:21:25;100270.25;;;24.10;55.24
25722;BME280;13578;53.450;15.496;2022-07-29T12:24:26;100274.38;;;24.14;56.76
25722;BME280;13578;53.450;15.496;2022-07-29T12:27:26;100274.16;;;24.22;56.06
25722;BME280;13578;53.450;15.496;2022-07-29T12:30:39;100268.91;;;24.53;58.85
25722;BME280;13578;53.450;15.496;2022-07-29T12:33:40;100269.91;;;24.92;58.18
25722;BME280;13578;53.450;15.496;2022-07-29T12:36:41;100280.00;;;25.00;58.88
25722;BME280;13578;53.450;15.496;2022-07-29T12:39:43;100275.16;;;24.68;55.29
25722;BME280;13578;53.450;15.496;2022-07-29T12:43:16;100280.53;;;24.77;56.65
25722;BME280;13578;53.450;15.496;2022-07-29T12:46:17;100270.91;;;25.11;56.65
25722;BME280;13578;53.450;15.496;2022-07-29T12:49:21;100269.88;;;24.99;56.28
25722;BME280;13578;53.450;15.496;2022-07-29T12:52:30;100274.81;;;24.97;54.37
25722;BME280;13578;53.450;15.496;2022-07-29T12:55:41;100268.63;;;25.33;54.53
25722;BME280;13578;53.450;15.496;2022-07-29T12:58:42;100267.22;;;25.17;51.81
25722;BME280;13578;53.450;15.496;2022-07-29T13:01:45;100254.28;;;25.10;52.00
25722;BME280;13578;53.450;15.496;2022-07-29T13:05:01;100258.38;;;25.07;53.17
25722;BME280;13578;53.450;15.496;2022-07-29T13:08:15;100250.13;;;24.67;53.42
25722;BME280;13578;53.450;15.496;2022-07-29T13:11:39;100241.94;;;24.58;54.54
25722;BME280;13578;53.450;15.496;2022-07-29T13:14:47;100238.72;;;24.48;54.45
25722;BME280;13578;53.450;15.496;2022-07-29T13:17:48;100232.03;;;24.42;55.68
25722;BME280;13578;53.450;15.496;2022-07-29T13:20:48;100233.81;;;23.97;56.29
25722;BME280;13578;53.450;15.496;2022-07-29T13:23:49;100230.81;;;24.05;54.96
25722;BME280;13578;53.450;15.496;2022-07-29T13:26:50;100222.34;;;24.32;56.59
25722;BME280;13578;53.450;15.496;2022-07-29T13:29:53;100220.78;;;24.69;55.04
25722;BME280;13578;53.450;15.496;2022-07-29T13:32:54;100236.91;;;24.81;58.51
25722;BME280;13578;53.450;15.496;2022-07-29T13:35:56;100239.41;;;24.37;55.06
25722;BME280;13578;53.450;15.496;2022-07-29T13:38:56;100233.56;;;24.38;54.37
25722;BME280;13578;53.450;15.496;2022-07-29T13:41:57;100232.06;;;24.36;56.37
25722;BME280;13578;53.450;15.496;2022-07-29T13:44:59;100224.53;;;24.30;57.46
25722;BME280;13578;53.450;15.496;2022-07-29T13:47:59;100228.84;;;24.32;57.59
25722;BME280;13578;53.450;15.496;2022-07-29T13:51:00;100231.31;;;24.61;56.49
25722;BME280;13578;53.450;15.496;2022-07-29T13:54:01;100224.78;;;24.94;56.41
25722;BME280;13578;53.450;15.496;2022-07-29T13:57:02;100225.88;;;24.86;53.61
25722;BME280;13578;53.450;15.496;2022-07-29T14:00:03;100222.31;;;24.52;53.10
25722;BME280;13578;53.450;15.496;2022-07-29T14:03:03;100216.56;;;23.93;53.92
25722;BME280;13578;53.450;15.496;2022-07-29T14:06:04;100220.66;;;24.10;56.12
25722;BME280;13578;53.450;15.496;2022-07-29T14:09:05;100208.94;;;24.47;53.08
25722;BME280;13578;53.450;15.496;2022-07-29T14:12:11;100215.59;;;24.73;54.25
25722;BME280;13578;53.450;15.496;2022-07-29T14:15:12;100216.78;;;24.90;53.93
25722;BME280;13578;53.450;15.496;2022-07-29T14:18:13;100209.84;;;24.93;51.56
25722;BME280;13578;53.450;15.496;2022-07-29T14:21:13;100208.81;;;24.87;50.78
25722;BME280;13578;53.450;15.496;2022-07-29T14:24:14;100190.78;;;24.50;50.31
25722;BME280;13578;53.450;15.496;2022-07-29T14:27:15;100199.06;;;24.24;52.67
25722;BME280;13578;53.450;15.496;2022-07-29T14:30:15;100195.19;;;24.25;54.61
25722;BME280;13578;53.450;15.496;2022-07-29T14:33:16;100196.63;;;24.41;55.75
25722;BME280;13578;53.450;15.496;2022-07-29T14:36:17;100196.41;;;24.56;54.63
25722;BME280;13578;53.450;15.496;2022-07-29T14:39:18;100188.78;;;24.77;54.09
25722;BME280;13578;53.450;15.496;2022-07-29T14:42:19;100183.91;;;24.52;52.01
25722;BME280;13578;53.450;15.496;2022-07-29T14:45:19;100179.84;;;24.94;55.10
25722;BME280;13578;53.450;15.496;2022-07-29T14:48:20;100179.41;;;24.97;52.55
25722;BME280;13578;53.450;15.496;2022-07-29T14:51:21;100186.38;;;25.19;53.20
25722;BME280;13578;53.450;15.496;2022-07-29T14:54:21;100182.13;;;25.49;53.24
25722;BME280;13578;53.450;15.496;2022-07-29T14:57:22;100178.72;;;25.01;49.75
25722;BME280;13578;53.450;15.496;2022-07-29T15:00:23;100184.66;;;24.80;51.96
25722;BME280;13578;53.450;15.496;2022-07-29T15:03:23;100181.53;;;24.49;49.50
25722;BME280;13578;53.450;15.496;2022-07-29T15:06:24;100184.84;;;24.13;53.12
25722;BME280;13578;53.450;15.496;2022-07-29T15:09:25;100183.56;;;24.02;52.33
25722;BME280;13578;53.450;15.496;2022-07-29T15:12:25;100179.03;;;23.87;54.54
25722;BME280;13578;53.450;15.496;2022-07-29T15:15:27;100181.22;;;23.65;54.77
25722;BME280;13578;53.450;15.496;2022-07-29T15:18:28;100177.75;;;23.63;56.78
25722;BME280;13578;53.450;15.496;2022-07-29T15:21:28;100174.94;;;23.43;57.27
25722;BME280;13578;53.450;15.496;2022-07-29T15:24:29;100167.00;;;23.53;58.23
25722;BME280;13578;53.450;15.496;2022-07-29T15:27:30;100167.88;;;23.67;55.88
25722;BME280;13578;53.450;15.496;2022-07-29T15:30:31;100166.34;;;23.98;51.02
25722;BME280;13578;53.450;15.496;2022-07-29T15:33:31;100178.31;;;24.39;52.75
25722;BME280;13578;53.450;15.496;2022-07-29T15:36:32;100173.06;;;24.63;52.18
25722;BME280;13578;53.450;15.496;2022-07-29T15:39:33;100174.59;;;24.58;51.77
25722;BME280;13578;53.450;15.496;2022-07-29T15:42:35;100168.88;;;24.33;53.54
25722;BME280;13578;53.450;15.496;2022-07-29T15:45:41;100168.47;;;24.09;53.17
25722;BME280;13578;53.450;15.496;2022-07-29T15:49:04;100161.16;;;24.02;54.18
25722;BME280;13578;53.450;15.496;2022-07-29T15:52:06;100153.63;;;23.95;53.25
25722;BME280;13578;53.450;15.496;2022-07-29T15:55:08;100151.47;;;23.98;55.71
25722;BME280;13578;53.450;15.496;2022-07-29T15:58:09;100163.72;;;24.17;54.56
25722;BME280;13578;53.450;15.496;2022-07-29T16:01:09;100160.66;;;24.32;53.48
25722;BME280;13578;53.450;15.496;2022-07-29T16:04:10;100151.56;;;24.43;50.26
25722;BME280;13578;53.450;15.496;2022-07-29T16:07:11;100153.72;;;24.34;50.37
25722;BME280;13578;53.450;15.496;2022-07-29T16:10:12;100148.22;;;24.14;52.36
25722;BME280;13578;53.450;15.496;2022-07-29T16:13:12;100147.31;;;24.20;52.60